Aérodrome :
LOGIN :

S'inscrire | Disclaimer

   EN    FR    IT 

 










Légende :    VFR   VFR Marginal   IFR   IFR Intensif   IFR Très Intensif
Visi : 
Plafond : 
>= 8 km
>= 3000ft
5 à 8 km
1000 à 3000 ft
1500m à 5 km
500 à 1000 ft
800 à 1500m
200 à 500 ft
< 800m
< 200 ft
Symboles :   Orages  Brouillard  Fortes neiges  Fortes précipitations  Vent > 20 kt
SIGMETs :   Divers  Orages  Givrage  Turbulence  Onde Orograph.  Cendres Volcan.






- Altitude de l'aérodrome : 27 ft
- Code IATA : PMI


LEPA - Palma de Mallorca

DERNIER METAR :
  • 090630Z 31017G30KT 280V350 6000 -RA SCT040 BKN060 09/05 Q1014 TEMPO 4000 SHRA FEW030TCU

METARs EXPIRÉS :
  • 090600Z 33011G23KT 300V360 9999 FEW040 11/03 Q1013 NOSIG
  • 090530Z 33013KT 300V360 9999 FEW040 SCT060 11/03 Q1013 NOSIG
  • 090500Z 33019KT 9999 FEW040 BKN060 11/03 Q1013 NOSIG
  • 090430Z 32021KT 9999 FEW040 BKN060 11/03 Q1013 NOSIG
  • 090400Z 32018KT 9999 SCT050 11/03 Q1012 NOSIG

TAF TAF LEPA
Valide du 09 à 06h jusqu'au 10 à 06h UTC


090500Z 0906/1006 30015KT 9999 FEW030 TX16/0912Z TN08/0906Z
PROB30
TEMPO 0906/0914 4500 SHRA FEW030TCU
TEMPO 0906/0908 30016G30KT
PROB30
TEMPO 0908/0912 30015G25KT
BECMG 0916/0918 26012KT
TEMPO 1000/1006 25015G25KT



MET'MAP, la Météo Aéronautique d'un coup d'oeil ! - Copyright ORBIFLY Décembre 2007 - Disclaimer

ORBIFLY MET'MAP TEAM :

Programmation & Développement : Alexandra Zaïnal
Sur une idée originale de : Baudouin d'Aumeries
Assistance à la programmation : Marc-Olivier Méhu
Soutien technique & logistique : Manuel Goepfert

Contact : metmap@orbifly.com




SOURCES & CREDITS :

   NOAA